Time;durP1;ratioP1;P1;durP2;ratioP2;P2;SDS_P1;SDS_P2;PMS_P1;PMS_P2;Temp;Humidity;BMP_temperature;BMP_pressure;BME280_temperature;BME280_humidity;BME280_pressure;Samples;Min_cycle;Max_cycle;Signal;HPM_P1;HPM_P2
2022/01/14 00:00:31;;;;;;;;;9.25;7.50;;;;;11.18;41.74;99569.69;6322589;22;101890;-78
2022/01/14 00:02:58;;;;;;;;;9.00;8.00;;;;;11.18;41.54;99567.00;6311003;22;103436;-79
2022/01/14 00:05:25;;;;;;;;;9.50;8.00;;;;;11.18;41.67;99566.16;6321520;22;102135;-78
2022/01/14 00:07:52;;;;;;;;;7.75;6.50;;;;;11.18;41.54;99558.03;6317132;22;102257;-79
2022/01/14 00:10:19;;;;;;;;;7.25;6.00;;;;;11.17;41.78;99551.78;6287332;22;102093;-79
2022/01/14 00:12:53;;;;;;;;;8.75;7.00;;;;;11.18;41.49;99552.63;6310358;22;103412;-79
2022/01/14 00:15:27;;;;;;;;;9.75;7.50;;;;;11.19;41.73;99557.00;6289368;22;101935;-79
2022/01/14 00:17:54;;;;;;;;;8.00;7.00;;;;;11.15;41.58;99537.59;6314340;22;101628;-79
2022/01/14 00:20:21;;;;;;;;;12.75;8.75;;;;;11.16;41.85;99543.84;6315442;22;101925;-79
2022/01/14 00:22:49;;;;;;;;;10.25;7.50;;;;;11.15;41.92;99534.03;6324890;22;103325;-79
2022/01/14 00:33:35;;;;;;;;;7.50;6.50;;;;;11.21;41.71;99536.03;6272175;22;103199;-79
2022/01/14 00:36:02;;;;;;;;;7.75;6.75;;;;;11.22;41.65;99537.69;6325372;22;102122;-79
2022/01/14 00:38:29;;;;;;;;;11.00;7.25;;;;;11.21;41.11;99540.59;6296579;22;102714;-79
2022/01/14 00:40:56;;;;;;;;;6.25;6.25;;;;;11.23;41.52;99550.22;6323792;22;101770;-79
2022/01/14 00:43:23;;;;;;;;;8.00;7.00;;;;;11.24;41.72;99551.91;6325520;22;103475;-79
2022/01/14 00:45:51;;;;;;;;;9.25;8.75;;;;;11.27;41.50;99559.66;6315642;22;101550;-79
2022/01/14 00:48:20;;;;;;;;;6.25;6.25;;;;;11.27;41.61;99564.22;6321463;22;101884;-78
2022/01/14 00:50:47;;;;;;;;;9.00;7.00;;;;;11.27;41.43;99562.34;6320086;22;101904;-78
2022/01/14 00:53:14;;;;;;;;;6.00;6.00;;;;;11.29;41.24;99563.03;6322666;22;103358;-79
2022/01/14 00:56:05;;;;;;;;;9.00;7.00;;;;;11.30;42.04;99564.69;6322981;22;101567;-79
2022/01/14 01:01:17;;;;;;;;;9.00;7.00;;;;;11.31;41.36;99552.84;6295967;22;102041;-78
2022/01/14 01:03:44;;;;;;;;;6.00;5.50;;;;;11.31;41.89;99550.13;6309396;22;103170;-79
2022/01/14 01:06:12;;;;;;;;;8.75;6.00;;;;;11.32;41.49;99548.28;6268761;22;102097;-79
2022/01/14 01:08:42;;;;;;;;;8.00;6.25;;;;;11.33;41.77;99541.84;6260805;22;104011;-78
2022/01/14 01:11:11;;;;;;;;;8.25;6.75;;;;;11.35;41.66;99528.94;6275232;22;102133;-79
2022/01/14 01:13:43;;;;;;;;;5.50;3.75;;;;;11.34;41.54;99536.25;6325419;22;103416;-79
2022/01/14 01:16:10;;;;;;;;;8.00;6.00;;;;;11.33;41.16;99541.84;6327256;22;101870;-78
2022/01/14 01:18:37;;;;;;;;;8.00;7.50;;;;;11.34;41.65;99541.66;6321614;22;101936;-79
2022/01/14 01:21:04;;;;;;;;;8.00;6.25;;;;;11.34;41.60;99547.09;6311113;22;105579;-78
2022/01/14 01:23:32;;;;;;;;;6.75;6.00;;;;;11.36;41.54;99545.00;6316099;22;103503;-79
2022/01/14 01:26:09;;;;;;;;;5.00;3.00;;;;;11.37;41.30;99540.44;6319547;22;101716;-79
2022/01/14 01:28:52;;;;;;;;;7.75;7.00;;;;;11.34;41.40;99544.38;6318302;22;101954;-79
2022/01/14 01:31:38;;;;;;;;;8.00;7.25;;;;;11.37;41.70;99556.69;6319134;22;101869;-79
2022/01/14 01:34:08;;;;;;;;;10.25;7.00;;;;;11.36;41.75;99555.00;6308975;22;103319;-79
2022/01/14 01:36:36;;;;;;;;;9.00;7.00;;;;;11.36;41.56;99555.00;6316300;22;103300;-79
2022/01/14 01:39:04;;;;;;;;;3.25;3.00;;;;;11.37;41.53;99562.94;6299655;22;102039;-79
2022/01/14 01:41:34;;;;;;;;;6.00;5.50;;;;;11.35;41.34;99559.56;6255446;22;102175;-79
2022/01/14 01:44:01;;;;;;;;;7.00;6.00;;;;;11.35;41.54;99564.97;6269401;22;103428;-78
2022/01/14 01:46:28;;;;;;;;;5.25;4.75;;;;;11.33;41.51;99556.22;6266546;22;102111;-79
2022/01/14 01:48:55;;;;;;;;;6.00;4.00;;;;;11.33;41.24;99567.06;6287997;22;101668;-78
2022/01/14 01:51:22;;;;;;;;;8.00;6.00;;;;;11.32;41.58;99565.34;6315435;22;101796;-79
2022/01/14 01:53:49;;;;;;;;;7.00;6.00;;;;;11.33;41.92;99566.22;6289699;22;103685;-79
2022/01/14 01:56:16;;;;;;;;;8.75;6.25;;;;;11.33;41.79;99558.94;6292786;22;104272;-79
2022/01/14 01:58:43;;;;;;;;;6.50;6.00;;;;;11.32;41.61;99538.28;6324556;22;102046;-78
2022/01/14 02:01:10;;;;;;;;;7.75;6.50;;;;;11.31;41.87;99530.34;6304800;22;101766;-78
2022/01/14 02:03:37;;;;;;;;;6.00;4.00;;;;;11.29;41.62;99516.16;6302017;22;103557;-78
2022/01/14 02:06:05;;;;;;;;;4.00;4.00;;;;;11.27;41.37;99526.31;6260270;22;101823;-78
2022/01/14 02:08:32;;;;;;;;;8.25;6.00;;;;;11.25;41.34;99518.41;6262416;22;101770;-78
2022/01/14 02:10:59;;;;;;;;;5.50;5.50;;;;;11.24;41.98;99524.81;6247933;22;103826;-78
2022/01/14 02:13:27;;;;;;;;;7.00;6.50;;;;;11.23;41.80;99523.13;6262456;22;103606;-78
2022/01/14 02:23:50;;;;;;;;;8.00;6.50;;;;;11.25;41.85;99518.41;6295510;22;103419;-78
2022/01/14 02:26:18;;;;;;;;;6.50;6.50;;;;;11.24;41.85;99514.00;6300225;22;101892;-78
2022/01/14 02:28:47;;;;;;;;;7.75;7.00;;;;;11.24;41.58;99514.00;6320305;22;102008;-78
2022/01/14 02:31:14;;;;;;;;;6.50;4.50;;;;;11.24;41.79;99508.59;6270157;22;101983;-78
2022/01/14 02:33:41;;;;;;;;;8.25;5.50;;;;;11.23;41.89;99500.63;6310135;22;103501;-78
2022/01/14 02:36:09;;;;;;;;;7.75;6.00;;;;;11.22;41.69;99505.19;6301049;22;101884;-78
2022/01/14 02:38:36;;;;;;;;;6.00;4.00;;;;;11.23;41.80;99492.50;6319896;22;102310;-78
2022/01/14 02:41:03;;;;;;;;;7.75;7.00;;;;;11.21;41.47;99495.44;6311060;22;101960;-78
2022/01/14 02:43:31;;;;;;;;;7.50;6.25;;;;;11.22;41.49;99493.53;6319737;22;103882;-78
2022/01/14 02:45:58;;;;;;;;;7.75;7.25;;;;;11.22;41.72;99493.53;6296004;22;101776;-79
2022/01/14 02:48:27;;;;;;;;;6.50;4.50;;;;;11.22;41.87;99483.53;6321336;22;101839;-78
2022/01/14 02:53:42;;;;;;;;;6.25;6.00;;;;;11.22;41.87;99480.84;6309520;22;102416;-78
2022/01/14 02:56:15;;;;;;;;;8.25;6.00;;;;;11.19;41.89;99475.81;6320429;22;101842;-78
2022/01/14 02:58:43;;;;;;;;;8.75;7.00;;;;;11.16;41.72;99487.00;6316420;22;102230;-78
2022/01/14 03:01:18;;;;;;;;;3.75;3.00;;;;;11.18;41.61;99484.94;6293263;22;102533;-79
2022/01/14 03:03:45;;;;;;;;;6.00;6.00;;;;;11.19;41.59;99478.50;6292331;22;108012;-78
2022/01/14 03:06:13;;;;;;;;;7.25;6.00;;;;;11.21;41.72;99481.03;6320913;22;102167;-78
2022/01/14 03:08:42;;;;;;;;;5.50;3.25;;;;;11.24;41.80;99475.25;6295612;22;102087;-78
2022/01/14 03:11:15;;;;;;;;;5.50;4.50;;;;;11.25;41.83;99472.38;6325758;22;101689;-78
2022/01/14 03:13:42;;;;;;;;;7.75;4.00;;;;;11.26;41.71;99471.31;6295309;22;103309;-79
2022/01/14 03:16:09;;;;;;;;;4.00;4.00;;;;;11.29;41.48;99465.56;6325387;22;103526;-78
2022/01/14 03:18:44;;;;;;;;;3.50;3.25;;;;;11.34;41.58;99459.59;6316134;22;102040;-78
2022/01/14 03:21:13;;;;;;;;;4.00;4.00;;;;;11.38;41.53;99459.03;6316913;22;101746;-78
2022/01/14 03:23:48;;;;;;;;;2.75;2.75;;;;;11.42;41.51;99473.88;6294307;22;103702;-78
2022/01/14 03:26:20;;;;;;;;;3.75;3.25;;;;;11.45;41.96;99457.25;6323952;22;101950;-78
2022/01/14 03:28:48;;;;;;;;;6.00;5.00;;;;;11.47;41.65;99466.06;6292983;22;102075;-79
2022/01/14 03:31:14;;;;;;;;;7.00;4.00;;;;;11.50;41.49;99471.09;6324510;22;102000;-78
2022/01/14 03:33:42;;;;;;;;;6.75;5.50;;;;;11.53;41.66;99462.56;6318705;22;103140;-78
2022/01/14 03:36:09;;;;;;;;;6.00;6.00;;;;;11.55;41.82;99463.25;6313147;22;101977;-79
2022/01/14 03:38:36;;;;;;;;;3.75;3.75;;;;;11.58;41.24;99452.03;6320286;22;101807;-78
2022/01/14 03:41:04;;;;;;;;;4.25;3.25;;;;;11.60;41.89;99441.03;6285616;22;101740;-78
2022/01/14 03:43:31;;;;;;;;;4.50;4.50;;;;;11.63;42.10;99443.34;6283635;22;103341;-78
2022/01/14 03:45:58;;;;;;;;;3.25;3.00;;;;;11.66;41.52;99436.72;6289574;22;102092;-78
2022/01/14 03:48:25;;;;;;;;;4.00;4.00;;;;;11.69;41.07;99439.06;6321805;22;103459;-79
2022/01/14 03:50:52;;;;;;;;;4.50;3.75;;;;;11.71;41.83;99440.53;6318462;22;102645;-79
2022/01/14 03:53:20;;;;;;;;;6.00;6.00;;;;;11.74;41.83;99428.53;6324407;22;103100;-79
2022/01/14 03:55:47;;;;;;;;;5.25;3.50;;;;;11.76;41.78;99421.03;6292743;22;102126;-79
2022/01/14 03:58:34;;;;;;;;;3.50;3.50;;;;;11.77;41.47;99428.13;6291802;22;101905;-79
2022/01/14 04:01:01;;;;;;;;;3.75;3.25;;;;;11.78;41.21;99417.13;6320359;22;101794;-79
2022/01/14 04:03:28;;;;;;;;;6.25;6.00;;;;;11.81;41.36;99424.03;6310822;22;103384;-78
2022/01/14 04:05:55;;;;;;;;;7.00;4.00;;;;;11.83;41.52;99405.72;6321791;22;101750;-78
2022/01/14 04:08:22;;;;;;;;;6.00;4.00;;;;;11.84;41.12;99415.53;6324638;22;101817;-79
2022/01/14 04:10:51;;;;;;;;;5.00;4.00;;;;;11.88;41.81;99414.13;6323729;22;102054;-79
2022/01/14 04:13:23;;;;;;;;;6.00;6.00;;;;;11.88;41.42;99406.84;6319619;22;107813;-79
2022/01/14 04:15:50;;;;;;;;;4.25;3.25;;;;;11.90;41.18;99403.91;6298409;22;101966;-79
2022/01/14 04:18:19;;;;;;;;;4.00;4.00;;;;;11.93;41.35;99407.09;6319868;22;102372;-79
2022/01/14 04:20:50;;;;;;;;;2.00;2.00;;;;;11.97;41.27;99407.56;6321347;22;101922;-79
2022/01/14 04:23:19;;;;;;;;;6.75;4.00;;;;;11.99;41.14;99402.78;6323652;22;108257;-79
2022/01/14 04:25:51;;;;;;;;;2.50;2.50;;;;;12.02;41.01;99421.41;6317317;22;101977;-79
2022/01/14 04:28:18;;;;;;;;;7.75;4.00;;;;;12.03;41.38;99414.91;6317737;22;101698;-79
2022/01/14 04:30:46;;;;;;;;;4.00;3.00;;;;;12.05;41.18;99416.41;6318757;22;102078;-78
2022/01/14 04:33:13;;;;;;;;;4.25;4.00;;;;;12.06;41.18;99406.44;6321378;22;103302;-78
2022/01/14 04:35:40;;;;;;;;;5.25;3.25;;;;;12.08;41.40;99397.06;6295415;22;101700;-79
2022/01/14 04:38:07;;;;;;;;;4.00;4.00;;;;;12.11;41.12;99397.72;6325586;22;101999;-78
2022/01/14 04:40:34;;;;;;;;;4.00;3.00;;;;;12.12;41.52;99388.53;6316753;22;101793;-77
2022/01/14 04:43:01;;;;;;;;;2.00;2.00;;;;;12.10;40.99;99380.59;6289982;22;103326;-78
2022/01/14 04:48:02;;;;;;;;;4.00;3.00;;;;;12.13;41.06;99369.38;6326541;22;102136;-83
2022/01/14 04:50:30;;;;;;;;;7.00;4.00;;;;;12.14;41.36;99371.06;6294375;22;102439;-83
2022/01/14 04:52:57;;;;;;;;;4.00;4.00;;;;;12.14;41.34;99368.34;6320245;22;104019;-82
2022/01/14 04:55:25;;;;;;;;;4.75;3.75;;;;;12.14;41.26;99365.63;6292793;22;102489;-83
2022/01/14 04:57:52;;;;;;;;;3.25;3.25;;;;;12.14;41.65;99365.63;6294094;22;101953;-80
2022/01/14 05:00:21;;;;;;;;;0.75;0.00;;;;;12.15;41.38;99369.19;6327868;22;101785;-82
2022/01/14 05:02:48;;;;;;;;;3.50;3.00;;;;;12.14;41.39;99364.78;6298330;22;108033;-83
2022/01/14 05:05:17;;;;;;;;;3.50;3.00;;;;;12.13;41.66;99358.53;6314000;22;102105;-83
2022/01/14 05:07:46;;;;;;;;;5.75;5.00;;;;;12.12;41.09;99351.41;6305776;22;101850;-83
2022/01/14 05:12:46;;;;;;;;;3.00;2.25;;;;;12.16;41.78;99357.31;6295171;22;103065;-83
2022/01/14 05:15:16;;;;;;;;;2.00;2.00;;;;;12.16;42.09;99351.91;6322312;22;101747;-83
2022/01/14 05:17:43;;;;;;;;;3.25;3.25;;;;;12.15;41.64;99351.06;6324700;22;101767;-82
2022/01/14 05:20:11;;;;;;;;;2.00;1.50;;;;;12.14;42.19;99354.78;6320872;22;101655;-82
2022/01/14 05:22:38;;;;;;;;;6.50;4.25;;;;;12.13;42.32;99361.25;6324037;22;103311;-82
2022/01/14 05:25:06;;;;;;;;;7.00;3.50;;;;;12.12;41.87;99359.56;6300132;22;101739;-83
2022/01/14 05:27:34;;;;;;;;;2.50;2.50;;;;;12.12;41.78;99367.69;6322959;22;101781;-82
2022/01/14 05:30:15;;;;;;;;;6.00;4.75;;;;;12.11;41.93;99354.34;6319246;22;101978;-82
2022/01/14 05:32:46;;;;;;;;;3.75;3.00;;;;;12.09;42.39;99349.09;6316599;22;103299;-82
2022/01/14 05:35:18;;;;;;;;;3.00;3.00;;;;;12.10;41.52;99347.25;6290795;22;101963;-82
2022/01/14 05:37:45;;;;;;;;;4.00;3.25;;;;;12.09;42.21;99343.69;6285178;22;101898;-82
2022/01/14 05:40:13;;;;;;;;;3.50;3.50;;;;;12.06;41.89;99335.94;6311802;22;103118;-82
2022/01/14 05:42:40;;;;;;;;;4.25;4.25;;;;;12.05;41.65;99328.84;6323288;22;103315;-82
2022/01/14 05:45:08;;;;;;;;;6.25;5.25;;;;;12.05;41.85;99335.09;6319967;22;102330;-83
2022/01/14 05:47:35;;;;;;;;;4.00;3.00;;;;;12.04;42.09;99313.59;6321810;22;101839;-82
2022/01/14 05:50:03;;;;;;;;;4.25;3.25;;;;;12.04;41.60;99321.72;6321155;22;103817;-82
2022/01/14 05:52:30;;;;;;;;;4.00;4.00;;;;;12.02;41.36;99331.94;6289562;22;103452;-83
2022/01/14 05:54:57;;;;;;;;;8.00;4.75;;;;;12.01;41.59;99314.00;6326347;22;102133;-82
2022/01/14 05:57:24;;;;;;;;;3.25;3.00;;;;;11.99;41.25;99308.75;6322484;22;101804;-81
2022/01/14 05:59:51;;;;;;;;;3.00;3.00;;;;;11.99;41.32;99300.63;6316516;22;101892;-82
2022/01/14 06:02:18;;;;;;;;;4.50;3.00;;;;;11.99;41.96;99306.03;6310949;22;108013;-82
2022/01/14 06:04:45;;;;;;;;;4.75;3.75;;;;;11.98;41.85;99336.03;6316954;22;102049;-83
2022/01/14 06:07:12;;;;;;;;;4.50;3.75;;;;;11.97;41.83;99347.94;6322753;22;101909;-82
2022/01/14 06:09:39;;;;;;;;;4.00;4.00;;;;;11.94;41.17;99341.00;6324883;22;101628;-82
2022/01/14 06:12:07;;;;;;;;;3.00;2.00;;;;;11.90;41.49;99357.84;6318676;22;103268;-81
2022/01/14 06:14:38;;;;;;;;;4.00;4.00;;;;;11.87;41.38;99347.41;6325574;22;101867;-82
2022/01/14 06:17:05;;;;;;;;;6.50;3.50;;;;;11.86;41.64;99354.69;6320065;22;101690;-82
2022/01/14 06:19:32;;;;;;;;;3.75;3.25;;;;;11.86;41.71;99332.16;6322952;22;104852;-82
2022/01/14 06:21:59;;;;;;;;;3.50;2.00;;;;;11.86;41.78;99353.84;6322942;22;103338;-83
2022/01/14 06:24:26;;;;;;;;;3.75;3.75;;;;;11.86;41.61;99341.13;6321588;22;102124;-82
2022/01/14 06:26:53;;;;;;;;;2.00;2.00;;;;;11.86;42.04;99356.56;6295112;22;101700;-82
2022/01/14 06:29:22;;;;;;;;;3.50;3.50;;;;;11.86;42.04;99361.97;6330233;22;101947;-83
2022/01/14 06:31:49;;;;;;;;;3.00;2.00;;;;;11.87;42.24;99366.38;6326675;22;107883;-82
2022/01/14 06:34:34;;;;;;;;;3.50;3.00;;;;;11.84;41.72;99366.75;6323626;22;101785;-83
2022/01/14 06:37:02;;;;;;;;;2.50;2.50;;;;;11.84;41.96;99358.63;6325273;22;102094;-82
2022/01/14 06:39:29;;;;;;;;;2.75;2.75;;;;;11.83;42.06;99362.38;6329046;22;101655;-82
2022/01/14 06:41:56;;;;;;;;;3.75;3.75;;;;;11.82;41.72;99369.66;6326129;22;103306;-82
2022/01/14 06:44:23;;;;;;;;;3.00;3.00;;;;;11.82;41.60;99368.81;6328764;22;101718;-82
2022/01/14 06:46:50;;;;;;;;;4.25;3.00;;;;;11.80;41.76;99355.44;6325986;22;101631;-83
2022/01/14 06:49:17;;;;;;;;;5.00;3.00;;;;;11.80;41.82;99368.16;6323368;22;101709;-81
2022/01/14 06:51:44;;;;;;;;;2.75;2.75;;;;;11.79;41.78;99369.19;6326286;22;103309;-82
2022/01/14 06:54:11;;;;;;;;;3.00;2.50;;;;;11.78;41.52;99371.06;6316996;22;102122;-82
2022/01/14 06:56:38;;;;;;;;;3.00;3.00;;;;;11.76;41.53;99358.72;6288490;22;105130;-82
2022/01/14 06:59:10;;;;;;;;;3.75;3.00;;;;;11.70;42.42;99362.19;6324366;22;101603;-82
2022/01/14 07:01:38;;;;;;;;;3.75;3.75;;;;;11.67;42.01;99362.53;6314606;22;102944;-82
2022/01/14 07:04:05;;;;;;;;;3.00;3.00;;;;;11.65;41.81;99349.19;6296284;22;101729;-82
2022/01/14 07:06:32;;;;;;;;;3.75;3.75;;;;;11.65;41.32;99349.19;6315487;22;102118;-82
2022/01/14 07:08:59;;;;;;;;;4.00;3.25;;;;;11.67;42.35;99352.53;6329189;22;101707;-82
2022/01/14 07:11:30;;;;;;;;;2.25;2.25;;;;;11.68;41.30;99346.09;6317716;22;103569;-82
2022/01/14 07:13:57;;;;;;;;;2.00;2.00;;;;;11.67;42.18;99330.88;6322251;22;102004;-83
2022/01/14 07:16:24;;;;;;;;;3.00;2.50;;;;;11.70;41.48;99326.97;6317986;22;101908;-83
2022/01/14 07:18:51;;;;;;;;;2.50;2.00;;;;;11.71;41.98;99331.34;6328411;22;101945;-82
2022/01/14 07:24:55;;;;;;;;;3.00;3.00;;;;;11.73;41.57;99335.56;6251857;22;102052;-82
2022/01/14 07:27:22;;;;;;;;;3.00;2.50;;;;;11.73;41.37;99334.72;6253359;22;102181;-83
2022/01/14 07:29:49;;;;;;;;;3.75;3.50;;;;;11.73;41.63;99330.16;6249760;22;101788;-82
2022/01/14 07:32:16;;;;;;;;;5.00;3.00;;;;;11.72;41.40;99316.75;6250007;22;103462;-84
2022/01/14 07:34:45;;;;;;;;;2.75;2.00;;;;;11.73;41.52;99313.06;6258788;22;103706;-82
2022/01/14 07:37:12;;;;;;;;;6.00;3.75;;;;;11.72;41.86;99311.34;6256889;22;101974;-82
2022/01/14 07:39:39;;;;;;;;;2.25;2.25;;;;;11.73;41.79;99300.34;6256043;22;102118;-83
2022/01/14 07:42:43;;;;;;;;;2.75;2.75;;;;;11.72;41.71;99312.22;6253935;22;103338;-83
2022/01/14 07:45:11;;;;;;;;;2.75;2.75;;;;;11.73;41.67;99318.47;6247943;22;101707;-83
2022/01/14 07:47:38;;;;;;;;;2.00;2.00;;;;;11.71;41.96;99307.78;6255084;22;101559;-83
2022/01/14 07:50:05;;;;;;;;;3.00;3.00;;;;;11.72;41.67;99317.63;6253202;22;101730;-83
2022/01/14 07:52:32;;;;;;;;;2.50;2.50;;;;;11.69;41.76;99322.56;6258967;22;103467;-83
2022/01/14 07:54:59;;;;;;;;;4.00;2.00;;;;;11.67;42.04;99321.91;6261789;22;101969;-82
2022/01/14 07:57:26;;;;;;;;;3.00;2.75;;;;;11.67;41.85;99327.31;6320823;22;101848;-83
2022/01/14 07:59:53;;;;;;;;;3.00;3.00;;;;;11.67;41.77;99314.63;6327467;22;103936;-80
2022/01/14 08:02:21;;;;;;;;;5.75;3.00;;;;;11.70;41.67;99325.09;6332361;22;103236;-82
2022/01/14 08:04:49;;;;;;;;;3.00;1.75;;;;;11.70;41.44;99308.00;6325060;22;101966;-83
2022/01/14 08:07:22;;;;;;;;;2.75;2.25;;;;;11.68;41.84;99294.63;6328774;22;101832;-83
2022/01/14 08:09:52;;;;;;;;;3.00;2.00;;;;;11.68;42.26;99289.22;6323822;22;101763;-83
2022/01/14 08:12:19;;;;;;;;;4.00;2.25;;;;;11.69;41.43;99274.66;6322347;22;107926;-83
2022/01/14 08:14:46;;;;;;;;;3.00;3.00;;;;;11.69;42.25;99268.38;6297509;22;101834;-82
2022/01/14 08:17:17;;;;;;;;;2.25;2.25;;;;;11.69;41.88;99277.34;6328590;22;101730;-83
2022/01/14 08:19:44;;;;;;;;;5.25;3.75;;;;;11.67;41.35;99263.16;6319628;22;109306;-83
2022/01/14 08:22:11;;;;;;;;;3.75;3.00;;;;;11.68;41.54;99269.41;6322527;22;103826;-83
2022/01/14 08:24:38;;;;;;;;;3.25;2.50;;;;;11.68;41.76;99267.53;6319880;22;101894;-83
2022/01/14 08:27:07;;;;;;;;;3.00;2.00;;;;;11.67;41.65;99275.84;6321002;22;101743;-83
2022/01/14 08:29:35;;;;;;;;;3.25;3.25;;;;;11.66;42.10;99261.50;6310001;22;101960;-83
2022/01/14 08:32:02;;;;;;;;;3.00;3.00;;;;;11.64;41.60;99256.25;6287991;22;103388;-83
2022/01/14 08:34:29;;;;;;;;;2.00;2.00;;;;;11.64;41.91;99258.13;6284108;22;101965;-83
2022/01/14 08:36:56;;;;;;;;;2.25;2.25;;;;;11.62;42.02;99250.19;6318484;22;101831;-83
2022/01/14 08:39:23;;;;;;;;;3.00;2.50;;;;;11.61;41.76;99253.09;6331039;22;101894;-83
2022/01/14 08:41:50;;;;;;;;;2.00;2.00;;;;;11.57;41.98;99249.91;6308314;22;107804;-83
2022/01/14 08:44:18;;;;;;;;;5.00;4.00;;;;;11.56;41.88;99252.81;6324436;22;101652;-83
2022/01/14 08:46:58;;;;;;;;;2.25;2.25;;;;;11.53;41.37;99235.06;6298706;22;102033;-83
2022/01/14 08:49:25;;;;;;;;;3.00;3.00;;;;;11.51;42.19;99231.75;6299734;22;104356;-83
2022/01/14 08:51:52;;;;;;;;;3.00;3.00;;;;;11.51;42.08;99245.28;6304883;22;108414;-84
2022/01/14 08:54:19;;;;;;;;;3.00;3.00;;;;;11.53;42.14;99245.91;6322309;22;102063;-82
2022/01/14 08:56:46;;;;;;;;;3.00;3.00;;;;;11.55;42.30;99245.72;6326365;22;101987;-84
2022/01/14 08:59:15;;;;;;;;;3.25;3.00;;;;;11.56;42.05;99237.41;6323954;22;101822;-78
2022/01/14 09:01:43;;;;;;;;;2.00;2.00;;;;;11.56;42.30;99245.53;6298434;22;103342;-79
2022/01/14 09:04:10;;;;;;;;;2.75;2.00;;;;;11.55;42.21;99235.72;6319355;22;102079;-79
2022/01/14 09:06:37;;;;;;;;;5.75;3.50;;;;;11.54;42.24;99231.34;6319548;22;101597;-78
2022/01/14 09:09:06;;;;;;;;;5.50;2.50;;;;;11.55;41.70;99226.78;6297772;22;101944;-79
2022/01/14 09:11:34;;;;;;;;;4.00;3.00;;;;;11.54;42.27;99227.78;6322702;22;103338;-78
2022/01/14 09:14:01;;;;;;;;;3.00;3.00;;;;;11.50;42.15;99235.47;6322325;22;101572;-78
2022/01/14 09:16:28;;;;;;;;;3.00;3.00;;;;;11.52;42.25;99230.72;6329216;22;102048;-78
2022/01/14 09:18:55;;;;;;;;;6.00;3.00;;;;;11.52;42.24;99228.00;6328706;22;101994;-79
2022/01/14 09:21:22;;;;;;;;;3.00;2.75;;;;;11.50;42.41;99213.81;6322055;22;108016;-78
2022/01/14 09:23:53;;;;;;;;;3.50;3.50;;;;;11.49;42.41;99225.66;6321195;22;102048;-78
2022/01/14 09:26:21;;;;;;;;;2.00;2.00;;;;;11.50;42.20;99227.34;6322537;22;104117;-78
2022/01/14 09:28:48;;;;;;;;;2.50;2.50;;;;;11.47;42.02;99216.06;6328823;22;102133;-78
2022/01/14 09:31:15;;;;;;;;;3.00;2.75;;;;;11.39;42.48;99217.00;6324578;22;103534;-78
2022/01/14 09:33:43;;;;;;;;;3.00;3.00;;;;;11.43;42.16;99231.03;6266864;22;101556;-78
2022/01/14 09:36:10;;;;;;;;;4.00;3.00;;;;;11.42;42.38;99224.75;6323696;22;101763;-79
2022/01/14 09:38:37;;;;;;;;;2.75;2.75;;;;;11.44;42.42;99221.84;6320565;22;102037;-78
2022/01/14 09:41:05;;;;;;;;;3.50;3.00;;;;;11.42;42.14;99218.50;6314539;22;103363;-79
2022/01/14 09:43:36;;;;;;;;;3.25;3.00;;;;;11.44;41.87;99211.84;6294054;22;101774;-78
2022/01/14 09:46:05;;;;;;;;;3.00;3.00;;;;;11.43;42.36;99209.34;6320285;22;102054;-78
2022/01/14 09:48:33;;;;;;;;;3.25;2.25;;;;;11.44;42.22;99211.84;6320774;22;102223;-78
2022/01/14 09:51:00;;;;;;;;;4.00;3.50;;;;;11.44;42.18;99209.16;6324813;22;103152;-78
2022/01/14 09:53:28;;;;;;;;;6.25;3.25;;;;;11.44;42.39;99211.84;6316731;22;101993;-79
2022/01/14 09:55:55;;;;;;;;;3.00;2.00;;;;;11.43;42.42;99215.63;6322669;22;101979;-78
2022/01/14 09:58:26;;;;;;;;;2.75;2.00;;;;;11.43;42.25;99212.91;6323206;22;102039;-78
2022/01/14 10:01:25;;;;;;;;;3.00;2.00;;;;;11.46;42.42;99203.53;6327416;22;107627;-79
2022/01/14 10:03:57;;;;;;;;;3.00;3.00;;;;;11.47;42.36;99206.06;6223258;22;101795;-78
2022/01/14 10:06:45;;;;;;;;;2.50;2.25;;;;;11.51;42.09;99183.00;6300101;22;101730;-78
2022/01/14 10:09:34;;;;;;;;;3.00;2.00;;;;;11.55;42.21;99191.56;6330894;22;102313;-78
2022/01/14 10:12:05;;;;;;;;;3.00;3.00;;;;;11.59;42.26;99204.53;6327565;22;108038;-77
2022/01/14 10:14:33;;;;;;;;;1.25;1.25;;;;;11.62;42.16;99209.53;6324665;22;101846;-79
2022/01/14 10:17:01;;;;;;;;;4.50;3.00;;;;;11.66;42.41;99198.34;6325288;22;101815;-79
2022/01/14 10:19:31;;;;;;;;;3.00;3.00;;;;;11.68;42.28;99201.69;6323160;22;102159;-79
2022/01/14 10:21:58;;;;;;;;;2.00;2.00;;;;;11.72;42.04;99189.44;6261910;22;103667;-79
2022/01/14 10:24:27;;;;;;;;;3.00;2.00;;;;;11.75;41.84;99195.34;6296829;22;101873;-78
2022/01/14 10:26:56;;;;;;;;;3.00;2.00;;;;;11.78;41.77;99189.53;6323286;22;102043;-78
2022/01/14 10:29:30;;;;;;;;;2.75;2.75;;;;;11.82;41.88;99187.28;6321221;22;102231;-78
2022/01/14 10:31:58;;;;;;;;;2.00;2.00;;;;;11.83;41.71;99176.25;6319323;22;108115;-79
2022/01/14 10:34:25;;;;;;;;;3.75;2.00;;;;;11.86;42.43;99151.47;6330348;22;101927;-78
2022/01/14 10:37:08;;;;;;;;;2.00;2.00;;;;;11.89;42.18;99161.06;6293140;22;101728;-78
2022/01/14 10:39:36;;;;;;;;;3.00;2.00;;;;;11.92;41.65;99152.56;6325206;22;102003;-78
2022/01/14 10:42:07;;;;;;;;;1.25;1.25;;;;;11.96;41.91;99151.13;6267888;22;103398;-79
2022/01/14 10:44:54;;;;;;;;;1.25;0.00;;;;;11.98;41.59;99140.91;6273503;22;101849;-78
2022/01/14 10:47:23;;;;;;;;;3.00;2.00;;;;;12.00;41.62;99136.97;6292276;22;101874;-78
2022/01/14 10:49:57;;;;;;;;;2.00;2.00;;;;;12.03;42.16;99130.31;6326754;22;101837;-78
2022/01/14 10:52:24;;;;;;;;;2.00;1.50;;;;;12.06;41.34;99124.53;6325574;22;107775;-78
2022/01/14 10:54:54;;;;;;;;;1.25;1.00;;;;;12.07;42.32;99116.16;6309207;22;102137;-79
2022/01/14 10:57:22;;;;;;;;;1.25;1.00;;;;;12.10;41.97;99114.97;6328886;22;101934;-79
2022/01/14 10:59:52;;;;;;;;;2.75;2.00;;;;;12.14;41.93;99109.97;6331899;22;102179;-78
2022/01/14 11:02:36;;;;;;;;;3.00;2.00;;;;;12.17;42.27;99106.84;6315953;22;103353;-78
2022/01/14 11:05:17;;;;;;;;;3.00;2.00;;;;;12.18;42.17;99098.53;6315328;22;101934;-78
2022/01/14 11:07:45;;;;;;;;;2.00;2.00;;;;;12.20;41.41;99082.91;6324232;22;101718;-78
2022/01/14 11:10:26;;;;;;;;;2.50;1.50;;;;;12.23;41.48;99090.63;6325161;22;102088;-78
2022/01/14 11:12:54;;;;;;;;;1.25;1.25;;;;;12.25;41.57;99085.00;6294361;22;108891;-78
2022/01/14 11:15:24;;;;;;;;;3.00;2.00;;;;;12.28;41.26;99080.03;6323786;22;101750;-78
2022/01/14 11:17:53;;;;;;;;;2.25;2.00;;;;;12.30;41.83;99072.53;6291587;22;101936;-78
2022/01/14 11:20:25;;;;;;;;;3.75;3.00;;;;;12.34;41.91;99084.63;6267694;22;102112;-78
2022/01/14 11:25:40;;;;;;;;;5.25;2.25;;;;;12.40;41.36;99061.31;6311577;22;102209;-77
2022/01/14 11:28:07;;;;;;;;;3.00;2.25;;;;;12.41;41.54;99057.56;6298699;22;102046;-79
2022/01/14 11:30:36;;;;;;;;;2.25;2.25;;;;;12.44;42.10;99051.72;6293067;22;102022;-78
2022/01/14 11:33:03;;;;;;;;;2.00;1.50;;;;;12.41;41.38;99063.81;6287676;22;103367;-83
2022/01/14 11:35:31;;;;;;;;;2.25;2.25;;;;;12.48;41.28;99071.97;6224650;22;103827;-83
2022/01/14 11:37:59;;;;;;;;;3.00;2.00;;;;;12.49;41.59;99060.09;6238115;22;102126;-82
2022/01/14 11:40:26;;;;;;;;;3.75;2.00;;;;;12.50;41.36;99062.63;6293193;22;101881;-83
2022/01/14 11:43:02;;;;;;;;;3.50;3.00;;;;;12.52;41.95;99057.81;6259883;22;110539;-83
2022/01/14 11:45:44;;;;;;;;;2.00;2.00;;;;;12.53;41.79;99053.22;6257200;22;101693;-83
2022/01/14 11:48:37;;;;;;;;;2.00;2.00;;;;;12.55;41.82;99053.88;6283523;22;102143;-78
2022/01/14 11:51:06;;;;;;;;;4.25;3.25;;;;;12.56;41.71;99055.56;6284680;22;102028;-78
2022/01/14 11:53:43;;;;;;;;;2.75;2.75;;;;;12.55;41.94;99042.19;6263755;22;103639;-78
2022/01/14 11:56:32;;;;;;;;;2.00;2.00;;;;;12.59;41.33;99043.44;6292236;22;101864;-79
2022/01/14 11:59:17;;;;;;;;;3.50;3.50;;;;;12.57;42.03;99037.38;6312436;22;101604;-78
2022/01/14 12:01:48;;;;;;;;;5.00;3.00;;;;;12.58;41.29;99025.50;6296604;22;101917;-79
2022/01/14 12:04:18;;;;;;;;;2.00;2.00;;;;;12.60;41.10;99031.56;6263326;22;102696;-79
2022/01/14 12:06:51;;;;;;;;;3.75;3.00;;;;;12.60;41.48;99031.56;6292090;22;102261;-79